EST,Max TemperatureF,Mean TemperatureF,Min TemperatureF,Max Dew PointF,MeanDew PointF,Min DewpointF,Max Humidity, Mean Humidity, Min Humidity, Max Sea Level PressureIn, Mean Sea Level PressureIn, Min Sea Level PressureIn, Max VisibilityMiles, Mean VisibilityMiles, Min VisibilityMiles, Max Wind SpeedMPH, Mean Wind SpeedMPH, Max Gust SpeedMPH,PrecipitationIn, CloudCover, Events, WindDirDegrees
2012-12-1,67,53,38,51,43,37,100,74,48,30.41,30.36,30.32,10,6,1,9,2,12,0.00,1,,104
2012-12-2,66,54,42,56,48,42,100,82,63,30.40,30.33,30.29,10,5,0,9,2,14,0.00,2,Fog,97
2012-12-3,73,59,45,59,51,45,100,79,57,30.33,30.30,30.26,10,3,0,9,2,25,0.00,4,Fog,209
2012-12-4,72,61,50,61,55,50,100,84,68,30.36,30.28,30.24,10,6,0,15,5,18,0.00,6,Fog,198
2012-12-5,76,63,49,57,53,48,100,69,38,30.23,30.17,30.10,10,6,0,13,4,16,0.00,2,Fog,251
2012-12-6,62,56,50,57,45,39,86,72,57,30.24,30.19,30.15,10,10,10,16,10,21,0.00,6,,45
2012-12-7,68,58,48,63,56,42,100,86,71,30.13,30.03,29.98,10,7,0,14,7,20,0.15,8,Fog-Rain,36
2012-12-8,65,60,54,59,56,53,100,92,84,30.10,30.04,29.98,9,3,0,9,4,14,0.00,6,Fog,242
2012-12-9,70,60,50,64,57,52,100,88,76,30.16,30.09,30.00,10,6,0,10,3,14,T,5,Fog-Rain,98
2012-12-10,69,65,60,65,62,58,100,94,87,29.98,29.88,29.79,10,4,0,18,9,23,0.00,5,Fog,219
2012-12-11,73,65,57,63,61,57,100,83,66,30.08,29.91,29.79,10,6,0,14,5,18,0.01,5,Fog-Rain,230
2012-12-12,62,53,43,61,49,41,100,95,89,30.22,30.15,30.05,10,6,2,22,10,29,0.44,8,Rain,29
2012-12-13,50,46,42,43,41,39,96,85,74,30.32,30.25,30.13,10,9,7,22,10,29,0.04,6,Rain,13
2012-12-14,61,49,36,41,37,35,92,66,39,30.36,30.29,30.23,10,9,2,14,4,17,0.00,0,,14
2012-12-15,62,50,37,58,51,36,100,83,65,30.24,30.15,30.08,10,5,2,9,4,10,0.09,7,Rain,65
2012-12-16,63,59,55,59,57,55,100,92,84,30.11,30.04,29.91,10,4,0,13,2,18,T,7,Fog,177
2012-12-17,67,63,59,63,61,57,100,95,90,29.90,29.84,29.71,10,8,2,16,6,24,0.31,7,Rain,219
2012-12-18,68,61,53,56,49,37,100,71,42,29.97,29.80,29.73,10,10,10,20,9,32,0.00,2,,262
2012-12-19,67,55,43,49,39,33,100,65,29,30.13,30.05,29.96,10,10,5,12,4,16,0.00,0,,263
2012-12-20,68,54,40,63,50,39,100,84,67,30.13,29.95,29.58,10,6,0,31,10,41,0.21,4,Fog-Rain,173
2012-12-21,65,53,40,63,33,24,93,65,36,29.90,29.74,29.59,10,10,2,29,13,41,0.07,3,Rain,270
2012-12-22,52,44,35,30,23,19,76,52,28,30.15,30.07,29.91,10,10,10,16,7,23,0.00,0,,280
2012-12-23,53,41,28,43,32,25,92,67,41,30.20,30.13,30.09,10,10,10,12,4,14,0.00,0,,231
2012-12-24,61,51,41,48,40,30,93,68,42,30.10,30.02,29.94,10,10,8,16,5,21,0.02,3,Rain,226
2012-12-25,59,53,46,52,49,44,93,83,72,30.09,30.02,29.96,10,10,7,13,4,18,0.11,5,Rain,44
2012-12-26,65,55,44,63,55,32,93,71,48,29.98,29.69,29.48,10,6,0,33,15,43,1.32,6,Fog-Rain-Thunderstorm,179
2012-12-27,54,45,36,38,33,31,92,69,46,30.06,29.94,29.75,10,10,9,16,6,26,0.00,0,,285
2012-12-28,52,42,31,40,34,29,100,74,48,30.17,30.09,29.98,10,10,9,12,3,14,0.00,2,,34
2012-12-29,55,50,45,48,45,36,100,82,63,29.98,29.76,29.70,10,7,2,17,8,28,0.96,7,Rain,336
2012-12-30,49,39,28,35,26,21,85,60,34,30.43,30.29,30.01,10,10,10,16,5,23,0.00,0,,327
2012-12-31,54,40,25,46,31,18,100,63,26,30.44,30.33,30.18,10,9,2,12,4,14,0.00,1,,220